sensor_id;sensor_type;location;lat;lon;timestamp;P1;durP1;ratioP1;P2;durP2;ratioP2
36137;SDS011;22194;50.046;21.954;2022-07-18T00:01:16;8.70;;;2.30;;
36137;SDS011;22194;50.046;21.954;2022-07-18T00:03:46;5.30;;;1.70;;
36137;SDS011;22194;50.046;21.954;2022-07-18T00:06:19;6.80;;;2.40;;
36137;SDS011;22194;50.046;21.954;2022-07-18T00:08:49;9.00;;;2.00;;
36137;SDS011;22194;50.046;21.954;2022-07-18T00:11:21;5.40;;;1.90;;
36137;SDS011;22194;50.046;21.954;2022-07-18T00:13:49;7.30;;;1.70;;
36137;SDS011;22194;50.046;21.954;2022-07-18T00:16:22;6.10;;;1.70;;
36137;SDS011;22194;50.046;21.954;2022-07-18T00:18:54;6.60;;;1.90;;
36137;SDS011;22194;50.046;21.954;2022-07-18T00:21:28;4.30;;;1.60;;
36137;SDS011;22194;50.046;21.954;2022-07-18T00:23:56;5.50;;;1.60;;
36137;SDS011;22194;50.046;21.954;2022-07-18T00:26:25;8.00;;;2.40;;
36137;SDS011;22194;50.046;21.954;2022-07-18T00:28:58;8.60;;;1.90;;
36137;SDS011;22194;50.046;21.954;2022-07-18T00:31:26;3.90;;;1.50;;
36137;SDS011;22194;50.046;21.954;2022-07-18T00:33:56;7.40;;;1.90;;
36137;SDS011;22194;50.046;21.954;2022-07-18T00:36:28;3.70;;;1.70;;
36137;SDS011;22194;50.046;21.954;2022-07-18T00:38:58;6.20;;;1.90;;
36137;SDS011;22194;50.046;21.954;2022-07-18T00:41:26;6.60;;;2.10;;
36137;SDS011;22194;50.046;21.954;2022-07-18T00:43:57;3.90;;;2.00;;
36137;SDS011;22194;50.046;21.954;2022-07-18T00:46:26;9.50;;;1.80;;
36137;SDS011;22194;50.046;21.954;2022-07-18T00:49:00;4.20;;;1.50;;
36137;SDS011;22194;50.046;21.954;2022-07-18T00:51:28;5.00;;;1.90;;
36137;SDS011;22194;50.046;21.954;2022-07-18T00:54:01;5.10;;;2.00;;
36137;SDS011;22194;50.046;21.954;2022-07-18T00:56:35;3.90;;;1.50;;
36137;SDS011;22194;50.046;21.954;2022-07-18T00:59:07;6.00;;;2.10;;
36137;SDS011;22194;50.046;21.954;2022-07-18T01:01:39;4.30;;;2.10;;
36137;SDS011;22194;50.046;21.954;2022-07-18T01:04:19;8.00;;;2.40;;
36137;SDS011;22194;50.046;21.954;2022-07-18T01:06:51;6.90;;;1.90;;
36137;SDS011;22194;50.046;21.954;2022-07-18T01:09:23;5.80;;;2.30;;
36137;SDS011;22194;50.046;21.954;2022-07-18T01:11:50;7.90;;;2.80;;
36137;SDS011;22194;50.046;21.954;2022-07-18T01:14:20;5.10;;;2.20;;
36137;SDS011;22194;50.046;21.954;2022-07-18T01:16:49;7.60;;;2.20;;
36137;SDS011;22194;50.046;21.954;2022-07-18T01:19:20;7.60;;;2.60;;
36137;SDS011;22194;50.046;21.954;2022-07-18T01:21:48;6.90;;;2.10;;
36137;SDS011;22194;50.046;21.954;2022-07-18T01:24:19;10.00;;;2.70;;
36137;SDS011;22194;50.046;21.954;2022-07-18T01:26:49;9.20;;;2.50;;
36137;SDS011;22194;50.046;21.954;2022-07-18T01:29:18;9.80;;;2.70;;
36137;SDS011;22194;50.046;21.954;2022-07-18T01:31:45;5.00;;;2.40;;
36137;SDS011;22194;50.046;21.954;2022-07-18T01:34:13;7.70;;;2.50;;
36137;SDS011;22194;50.046;21.954;2022-07-18T01:36:41;9.70;;;3.00;;
36137;SDS011;22194;50.046;21.954;2022-07-18T01:39:09;12.00;;;2.80;;
36137;SDS011;22194;50.046;21.954;2022-07-18T01:41:38;9.40;;;2.50;;
36137;SDS011;22194;50.046;21.954;2022-07-18T01:44:06;10.00;;;2.80;;
36137;SDS011;22194;50.046;21.954;2022-07-18T01:46:39;9.60;;;3.20;;
36137;SDS011;22194;50.046;21.954;2022-07-18T01:49:08;9.10;;;3.00;;
36137;SDS011;22194;50.046;21.954;2022-07-18T01:51:38;11.00;;;3.00;;
36137;SDS011;22194;50.046;21.954;2022-07-18T01:54:08;7.70;;;3.40;;
36137;SDS011;22194;50.046;21.954;2022-07-18T01:56:36;5.90;;;2.50;;
36137;SDS011;22194;50.046;21.954;2022-07-18T01:59:04;6.80;;;2.60;;
36137;SDS011;22194;50.046;21.954;2022-07-18T02:01:39;6.70;;;2.60;;
36137;SDS011;22194;50.046;21.954;2022-07-18T02:04:07;5.40;;;2.50;;
36137;SDS011;22194;50.046;21.954;2022-07-18T02:06:37;6.70;;;3.00;;
36137;SDS011;22194;50.046;21.954;2022-07-18T02:09:09;10.60;;;2.90;;
36137;SDS011;22194;50.046;21.954;2022-07-18T02:11:40;6.50;;;2.70;;
36137;SDS011;22194;50.046;21.954;2022-07-18T02:14:07;8.30;;;2.50;;
36137;SDS011;22194;50.046;21.954;2022-07-18T02:16:36;6.70;;;2.90;;
36137;SDS011;22194;50.046;21.954;2022-07-18T02:19:05;8.60;;;3.00;;
36137;SDS011;22194;50.046;21.954;2022-07-18T02:21:33;8.40;;;3.10;;
36137;SDS011;22194;50.046;21.954;2022-07-18T02:24:01;9.40;;;3.30;;
36137;SDS011;22194;50.046;21.954;2022-07-18T02:26:29;6.70;;;2.70;;
36137;SDS011;22194;50.046;21.954;2022-07-18T02:29:01;5.90;;;2.80;;
36137;SDS011;22194;50.046;21.954;2022-07-18T02:31:32;8.70;;;3.20;;
36137;SDS011;22194;50.046;21.954;2022-07-18T02:34:00;8.70;;;2.70;;
36137;SDS011;22194;50.046;21.954;2022-07-18T02:36:28;7.90;;;3.00;;
36137;SDS011;22194;50.046;21.954;2022-07-18T02:38:59;6.70;;;2.80;;
36137;SDS011;22194;50.046;21.954;2022-07-18T02:41:27;10.20;;;3.00;;
36137;SDS011;22194;50.046;21.954;2022-07-18T02:43:59;7.60;;;2.80;;
36137;SDS011;22194;50.046;21.954;2022-07-18T02:46:32;8.30;;;3.10;;
36137;SDS011;22194;50.046;21.954;2022-07-18T02:49:03;5.20;;;2.70;;
36137;SDS011;22194;50.046;21.954;2022-07-18T02:51:31;9.40;;;2.80;;
36137;SDS011;22194;50.046;21.954;2022-07-18T02:54:00;5.90;;;2.60;;
36137;SDS011;22194;50.046;21.954;2022-07-18T02:56:33;9.80;;;2.80;;
36137;SDS011;22194;50.046;21.954;2022-07-18T02:59:01;6.20;;;2.60;;
36137;SDS011;22194;50.046;21.954;2022-07-18T03:01:31;7.00;;;2.50;;
36137;SDS011;22194;50.046;21.954;2022-07-18T03:04:00;8.70;;;2.70;;
36137;SDS011;22194;50.046;21.954;2022-07-18T03:06:33;7.50;;;2.70;;
36137;SDS011;22194;50.046;21.954;2022-07-18T03:09:03;7.70;;;2.90;;
36137;SDS011;22194;50.046;21.954;2022-07-18T03:11:36;8.40;;;2.60;;
36137;SDS011;22194;50.046;21.954;2022-07-18T03:14:09;8.70;;;2.80;;
36137;SDS011;22194;50.046;21.954;2022-07-18T03:16:37;4.90;;;2.20;;
36137;SDS011;22194;50.046;21.954;2022-07-18T03:19:07;11.40;;;2.70;;
36137;SDS011;22194;50.046;21.954;2022-07-18T03:21:35;6.10;;;2.70;;
36137;SDS011;22194;50.046;21.954;2022-07-18T03:24:06;15.30;;;3.20;;
36137;SDS011;22194;50.046;21.954;2022-07-18T03:26:34;6.80;;;2.60;;
36137;SDS011;22194;50.046;21.954;2022-07-18T03:29:02;7.40;;;2.60;;
36137;SDS011;22194;50.046;21.954;2022-07-18T03:31:35;7.40;;;2.90;;
36137;SDS011;22194;50.046;21.954;2022-07-18T03:34:05;12.90;;;4.20;;
36137;SDS011;22194;50.046;21.954;2022-07-18T03:36:33;11.00;;;2.80;;
36137;SDS011;22194;50.046;21.954;2022-07-18T03:39:05;7.60;;;2.80;;
36137;SDS011;22194;50.046;21.954;2022-07-18T03:41:36;10.10;;;3.50;;
36137;SDS011;22194;50.046;21.954;2022-07-18T03:44:08;7.70;;;3.20;;
36137;SDS011;22194;50.046;21.954;2022-07-18T03:46:38;6.70;;;3.30;;
36137;SDS011;22194;50.046;21.954;2022-07-18T03:49:11;8.10;;;2.80;;
36137;SDS011;22194;50.046;21.954;2022-07-18T03:51:41;5.90;;;2.80;;
36137;SDS011;22194;50.046;21.954;2022-07-18T03:54:08;8.00;;;2.60;;
36137;SDS011;22194;50.046;21.954;2022-07-18T03:56:38;6.00;;;2.90;;
36137;SDS011;22194;50.046;21.954;2022-07-18T03:59:06;10.90;;;3.00;;
36137;SDS011;22194;50.046;21.954;2022-07-18T04:01:34;8.00;;;2.90;;
36137;SDS011;22194;50.046;21.954;2022-07-18T04:04:02;6.70;;;3.10;;
36137;SDS011;22194;50.046;21.954;2022-07-18T04:06:33;7.70;;;2.60;;
36137;SDS011;22194;50.046;21.954;2022-07-18T04:09:01;9.80;;;2.70;;
36137;SDS011;22194;50.046;21.954;2022-07-18T04:11:30;6.80;;;3.00;;
36137;SDS011;22194;50.046;21.954;2022-07-18T04:14:03;11.00;;;2.90;;
36137;SDS011;22194;50.046;21.954;2022-07-18T04:16:34;7.00;;;2.70;;
36137;SDS011;22194;50.046;21.954;2022-07-18T04:19:06;8.10;;;2.70;;
36137;SDS011;22194;50.046;21.954;2022-07-18T04:21:36;8.90;;;2.60;;
36137;SDS011;22194;50.046;21.954;2022-07-18T04:24:06;9.40;;;3.20;;
36137;SDS011;22194;50.046;21.954;2022-07-18T04:26:34;3.90;;;2.30;;
36137;SDS011;22194;50.046;21.954;2022-07-18T04:29:03;9.80;;;3.20;;
36137;SDS011;22194;50.046;21.954;2022-07-18T04:31:32;11.30;;;3.00;;
36137;SDS011;22194;50.046;21.954;2022-07-18T04:34:03;7.40;;;2.80;;
36137;SDS011;22194;50.046;21.954;2022-07-18T04:36:32;11.30;;;2.90;;
36137;SDS011;22194;50.046;21.954;2022-07-18T04:39:04;6.00;;;2.30;;
36137;SDS011;22194;50.046;21.954;2022-07-18T04:41:34;9.70;;;3.10;;
36137;SDS011;22194;50.046;21.954;2022-07-18T04:44:04;5.60;;;2.50;;
36137;SDS011;22194;50.046;21.954;2022-07-18T04:46:35;8.10;;;3.10;;
36137;SDS011;22194;50.046;21.954;2022-07-18T04:49:04;6.70;;;2.60;;
36137;SDS011;22194;50.046;21.954;2022-07-18T04:51:33;11.90;;;2.80;;
36137;SDS011;22194;50.046;21.954;2022-07-18T04:54:05;7.00;;;2.40;;
36137;SDS011;22194;50.046;21.954;2022-07-18T04:56:39;9.30;;;2.70;;
36137;SDS011;22194;50.046;21.954;2022-07-18T04:59:07;8.40;;;2.50;;
36137;SDS011;22194;50.046;21.954;2022-07-18T05:01:35;5.50;;;2.40;;
36137;SDS011;22194;50.046;21.954;2022-07-18T05:04:05;8.70;;;2.40;;
36137;SDS011;22194;50.046;21.954;2022-07-18T05:06:35;6.70;;;2.30;;
36137;SDS011;22194;50.046;21.954;2022-07-18T05:09:05;10.50;;;3.10;;
36137;SDS011;22194;50.046;21.954;2022-07-18T05:11:33;6.90;;;2.20;;
36137;SDS011;22194;50.046;21.954;2022-07-18T05:14:02;8.80;;;2.40;;
36137;SDS011;22194;50.046;21.954;2022-07-18T05:16:31;10.20;;;2.60;;
36137;SDS011;22194;50.046;21.954;2022-07-18T05:19:03;7.10;;;2.30;;
36137;SDS011;22194;50.046;21.954;2022-07-18T05:21:34;5.60;;;2.30;;
36137;SDS011;22194;50.046;21.954;2022-07-18T05:24:02;10.10;;;2.50;;
36137;SDS011;22194;50.046;21.954;2022-07-18T05:26:32;8.50;;;2.20;;
36137;SDS011;22194;50.046;21.954;2022-07-18T05:29:04;10.60;;;2.30;;
36137;SDS011;22194;50.046;21.954;2022-07-18T05:31:34;9.50;;;2.90;;
36137;SDS011;22194;50.046;21.954;2022-07-18T05:34:06;12.90;;;2.80;;
36137;SDS011;22194;50.046;21.954;2022-07-18T05:36:39;6.20;;;2.40;;
36137;SDS011;22194;50.046;21.954;2022-07-18T05:39:09;7.20;;;2.20;;
36137;SDS011;22194;50.046;21.954;2022-07-18T05:41:39;8.80;;;2.60;;
36137;SDS011;22194;50.046;21.954;2022-07-18T05:44:07;12.20;;;3.50;;
36137;SDS011;22194;50.046;21.954;2022-07-18T05:46:35;7.60;;;2.60;;
36137;SDS011;22194;50.046;21.954;2022-07-18T05:49:07;14.50;;;3.00;;
36137;SDS011;22194;50.046;21.954;2022-07-18T05:51:35;9.40;;;2.90;;
36137;SDS011;22194;50.046;21.954;2022-07-18T05:54:05;7.10;;;2.40;;
36137;SDS011;22194;50.046;21.954;2022-07-18T05:56:33;11.30;;;2.80;;
36137;SDS011;22194;50.046;21.954;2022-07-18T05:59:06;7.00;;;2.20;;
36137;SDS011;22194;50.046;21.954;2022-07-18T06:01:34;9.00;;;2.30;;
36137;SDS011;22194;50.046;21.954;2022-07-18T06:04:02;11.80;;;2.60;;
36137;SDS011;22194;50.046;21.954;2022-07-18T06:06:30;9.70;;;3.20;;
36137;SDS011;22194;50.046;21.954;2022-07-18T06:09:03;10.00;;;2.50;;
36137;SDS011;22194;50.046;21.954;2022-07-18T06:11:36;7.60;;;2.70;;
36137;SDS011;22194;50.046;21.954;2022-07-18T06:14:06;9.70;;;2.50;;
36137;SDS011;22194;50.046;21.954;2022-07-18T06:16:39;5.30;;;2.30;;
36137;SDS011;22194;50.046;21.954;2022-07-18T06:19:11;13.90;;;3.30;;
36137;SDS011;22194;50.046;21.954;2022-07-18T06:21:47;4.90;;;1.90;;
36137;SDS011;22194;50.046;21.954;2022-07-18T06:24:20;6.90;;;2.50;;
36137;SDS011;22194;50.046;21.954;2022-07-18T06:26:47;9.10;;;2.80;;
36137;SDS011;22194;50.046;21.954;2022-07-18T06:29:22;8.40;;;2.30;;
36137;SDS011;22194;50.046;21.954;2022-07-18T06:31:54;6.70;;;2.20;;
36137;SDS011;22194;50.046;21.954;2022-07-18T06:34:23;7.90;;;2.40;;
36137;SDS011;22194;50.046;21.954;2022-07-18T06:36:53;9.70;;;2.50;;
36137;SDS011;22194;50.046;21.954;2022-07-18T06:39:22;8.80;;;2.20;;
36137;SDS011;22194;50.046;21.954;2022-07-18T06:41:55;7.80;;;2.10;;
36137;SDS011;22194;50.046;21.954;2022-07-18T06:44:28;6.70;;;2.20;;
36137;SDS011;22194;50.046;21.954;2022-07-18T06:47:01;8.60;;;2.40;;
36137;SDS011;22194;50.046;21.954;2022-07-18T06:49:31;6.90;;;2.40;;
36137;SDS011;22194;50.046;21.954;2022-07-18T06:52:02;5.60;;;2.10;;
36137;SDS011;22194;50.046;21.954;2022-07-18T06:54:31;7.90;;;2.30;;
36137;SDS011;22194;50.046;21.954;2022-07-18T06:57:00;7.90;;;2.80;;
36137;SDS011;22194;50.046;21.954;2022-07-18T06:59:34;11.50;;;2.70;;
36137;SDS011;22194;50.046;21.954;2022-07-18T07:02:03;9.00;;;2.80;;
36137;SDS011;22194;50.046;21.954;2022-07-18T07:04:32;8.70;;;2.70;;
36137;SDS011;22194;50.046;21.954;2022-07-18T07:07:01;9.30;;;2.30;;
36137;SDS011;22194;50.046;21.954;2022-07-18T07:09:29;8.90;;;2.50;;
36137;SDS011;22194;50.046;21.954;2022-07-18T07:11:57;7.80;;;2.40;;
36137;SDS011;22194;50.046;21.954;2022-07-18T07:14:25;7.70;;;2.10;;
36137;SDS011;22194;50.046;21.954;2022-07-18T07:16:53;10.50;;;3.00;;
36137;SDS011;22194;50.046;21.954;2022-07-18T07:19:21;5.80;;;2.30;;
36137;SDS011;22194;50.046;21.954;2022-07-18T07:21:49;5.70;;;2.50;;
36137;SDS011;22194;50.046;21.954;2022-07-18T07:24:18;7.60;;;2.00;;
36137;SDS011;22194;50.046;21.954;2022-07-18T07:26:47;5.70;;;2.60;;
36137;SDS011;22194;50.046;21.954;2022-07-18T07:29:22;4.50;;;2.50;;
36137;SDS011;22194;50.046;21.954;2022-07-18T07:31:50;7.20;;;2.20;;
36137;SDS011;22194;50.046;21.954;2022-07-18T07:34:19;8.50;;;2.50;;
36137;SDS011;22194;50.046;21.954;2022-07-18T07:36:47;6.60;;;2.40;;
36137;SDS011;22194;50.046;21.954;2022-07-18T07:39:14;4.30;;;2.00;;
36137;SDS011;22194;50.046;21.954;2022-07-18T07:41:43;8.90;;;2.20;;
36137;SDS011;22194;50.046;21.954;2022-07-18T07:44:10;8.50;;;2.30;;
36137;SDS011;22194;50.046;21.954;2022-07-18T07:46:38;7.00;;;2.50;;
36137;SDS011;22194;50.046;21.954;2022-07-18T07:49:06;5.10;;;2.10;;
36137;SDS011;22194;50.046;21.954;2022-07-18T07:51:34;7.90;;;2.40;;
36137;SDS011;22194;50.046;21.954;2022-07-18T07:54:03;9.00;;;2.60;;
36137;SDS011;22194;50.046;21.954;2022-07-18T07:56:34;8.20;;;3.00;;
36137;SDS011;22194;50.046;21.954;2022-07-18T07:59:02;7.80;;;2.60;;
36137;SDS011;22194;50.046;21.954;2022-07-18T08:01:30;7.70;;;2.20;;
36137;SDS011;22194;50.046;21.954;2022-07-18T08:03:59;6.60;;;2.50;;
36137;SDS011;22194;50.046;21.954;2022-07-18T08:06:27;7.80;;;2.50;;
36137;SDS011;22194;50.046;21.954;2022-07-18T08:08:54;6.10;;;2.40;;
36137;SDS011;22194;50.046;21.954;2022-07-18T08:11:26;6.60;;;2.50;;
36137;SDS011;22194;50.046;21.954;2022-07-18T08:13:55;7.50;;;2.40;;
36137;SDS011;22194;50.046;21.954;2022-07-18T08:16:23;9.30;;;2.40;;
36137;SDS011;22194;50.046;21.954;2022-07-18T08:18:52;5.20;;;2.20;;
36137;SDS011;22194;50.046;21.954;2022-07-18T08:21:20;9.00;;;2.80;;
36137;SDS011;22194;50.046;21.954;2022-07-18T08:23:47;8.60;;;2.40;;
36137;SDS011;22194;50.046;21.954;2022-07-18T08:26:16;4.70;;;2.40;;
36137;SDS011;22194;50.046;21.954;2022-07-18T08:28:44;5.20;;;2.00;;
36137;SDS011;22194;50.046;21.954;2022-07-18T08:31:13;6.90;;;2.30;;
36137;SDS011;22194;50.046;21.954;2022-07-18T08:33:42;9.10;;;2.30;;
36137;SDS011;22194;50.046;21.954;2022-07-18T08:36:10;5.70;;;2.00;;
36137;SDS011;22194;50.046;21.954;2022-07-18T08:38:42;7.00;;;2.20;;
36137;SDS011;22194;50.046;21.954;2022-07-18T08:41:11;5.30;;;2.20;;
36137;SDS011;22194;50.046;21.954;2022-07-18T08:43:39;8.20;;;2.00;;
36137;SDS011;22194;50.046;21.954;2022-07-18T08:46:08;11.20;;;2.90;;
36137;SDS011;22194;50.046;21.954;2022-07-18T08:48:38;7.90;;;2.60;;
36137;SDS011;22194;50.046;21.954;2022-07-18T08:51:08;9.00;;;2.50;;
36137;SDS011;22194;50.046;21.954;2022-07-18T08:53:38;6.50;;;3.10;;
36137;SDS011;22194;50.046;21.954;2022-07-18T08:56:07;9.00;;;2.90;;
36137;SDS011;22194;50.046;21.954;2022-07-18T08:58:36;5.80;;;2.20;;
36137;SDS011;22194;50.046;21.954;2022-07-18T09:01:14;7.50;;;2.20;;
36137;SDS011;22194;50.046;21.954;2022-07-18T09:03:42;8.20;;;2.50;;
36137;SDS011;22194;50.046;21.954;2022-07-18T09:06:12;8.30;;;2.70;;
36137;SDS011;22194;50.046;21.954;2022-07-18T09:09:00;11.40;;;2.70;;
36137;SDS011;22194;50.046;21.954;2022-07-18T09:11:30;12.90;;;2.80;;
36137;SDS011;22194;50.046;21.954;2022-07-18T09:14:35;6.90;;;2.30;;
36137;SDS011;22194;50.046;21.954;2022-07-18T09:17:11;8.50;;;2.30;;
36137;SDS011;22194;50.046;21.954;2022-07-18T09:22:27;7.30;;;2.20;;
36137;SDS011;22194;50.046;21.954;2022-07-18T09:25:08;7.00;;;2.50;;
36137;SDS011;22194;50.046;21.954;2022-07-18T09:27:59;6.20;;;2.20;;
36137;SDS011;22194;50.046;21.954;2022-07-18T09:35:53;9.00;;;2.20;;
36137;SDS011;22194;50.046;21.954;2022-07-18T09:38:28;8.00;;;2.20;;
36137;SDS011;22194;50.046;21.954;2022-07-18T09:40:57;9.20;;;2.50;;
36137;SDS011;22194;50.046;21.954;2022-07-18T09:43:27;9.20;;;2.20;;
36137;SDS011;22194;50.046;21.954;2022-07-18T09:45:57;3.80;;;1.90;;
36137;SDS011;22194;50.046;21.954;2022-07-18T09:48:28;8.50;;;2.40;;
36137;SDS011;22194;50.046;21.954;2022-07-18T09:50:59;8.70;;;2.60;;
36137;SDS011;22194;50.046;21.954;2022-07-18T09:53:30;11.40;;;2.20;;
36137;SDS011;22194;50.046;21.954;2022-07-18T09:56:09;6.00;;;2.00;;
36137;SDS011;22194;50.046;21.954;2022-07-18T09:58:49;6.30;;;2.30;;
36137;SDS011;22194;50.046;21.954;2022-07-18T10:01:18;4.70;;;1.90;;
36137;SDS011;22194;50.046;21.954;2022-07-18T10:03:48;7.70;;;2.30;;
36137;SDS011;22194;50.046;21.954;2022-07-18T10:06:18;5.80;;;2.20;;
36137;SDS011;22194;50.046;21.954;2022-07-18T10:08:47;6.20;;;2.30;;
36137;SDS011;22194;50.046;21.954;2022-07-18T10:11:18;7.00;;;2.20;;
36137;SDS011;22194;50.046;21.954;2022-07-18T10:13:47;4.20;;;2.10;;
36137;SDS011;22194;50.046;21.954;2022-07-18T10:16:19;7.70;;;2.20;;
36137;SDS011;22194;50.046;21.954;2022-07-18T10:18:48;7.00;;;2.40;;
36137;SDS011;22194;50.046;21.954;2022-07-18T10:21:18;8.80;;;2.90;;
36137;SDS011;22194;50.046;21.954;2022-07-18T10:23:50;8.50;;;2.30;;
36137;SDS011;22194;50.046;21.954;2022-07-18T10:26:28;6.30;;;2.20;;
36137;SDS011;22194;50.046;21.954;2022-07-18T10:31:30;9.90;;;2.80;;
36137;SDS011;22194;50.046;21.954;2022-07-18T10:36:41;9.50;;;2.30;;
36137;SDS011;22194;50.046;21.954;2022-07-18T10:39:35;8.50;;;2.40;;
36137;SDS011;22194;50.046;21.954;2022-07-18T10:44:39;8.80;;;2.60;;
36137;SDS011;22194;50.046;21.954;2022-07-18T10:47:13;12.70;;;2.70;;
36137;SDS011;22194;50.046;21.954;2022-07-18T11:16:11;6.10;;;1.90;;
36137;SDS011;22194;50.046;21.954;2022-07-18T11:21:25;8.80;;;2.20;;
36137;SDS011;22194;50.046;21.954;2022-07-18T11:24:06;7.90;;;2.20;;
36137;SDS011;22194;50.046;21.954;2022-07-18T11:26:38;6.80;;;2.20;;
36137;SDS011;22194;50.046;21.954;2022-07-18T11:29:11;6.00;;;2.10;;
36137;SDS011;22194;50.046;21.954;2022-07-18T11:34:15;9.50;;;1.80;;
36137;SDS011;22194;50.046;21.954;2022-07-18T11:36:46;8.10;;;2.30;;
36137;SDS011;22194;50.046;21.954;2022-07-18T11:39:29;8.90;;;2.60;;
36137;SDS011;22194;50.046;21.954;2022-07-18T11:42:00;8.60;;;2.20;;
36137;SDS011;22194;50.046;21.954;2022-07-18T11:44:29;6.80;;;1.90;;
36137;SDS011;22194;50.046;21.954;2022-07-18T11:47:08;9.00;;;1.90;;
36137;SDS011;22194;50.046;21.954;2022-07-18T11:49:39;6.80;;;2.00;;
36137;SDS011;22194;50.046;21.954;2022-07-18T11:52:08;4.00;;;1.80;;
36137;SDS011;22194;50.046;21.954;2022-07-18T11:54:36;3.90;;;1.80;;
36137;SDS011;22194;50.046;21.954;2022-07-18T11:57:05;5.50;;;1.90;;
36137;SDS011;22194;50.046;21.954;2022-07-18T11:59:39;5.70;;;1.80;;
36137;SDS011;22194;50.046;21.954;2022-07-18T12:02:12;5.60;;;1.70;;
36137;SDS011;22194;50.046;21.954;2022-07-18T12:04:41;6.50;;;2.00;;
36137;SDS011;22194;50.046;21.954;2022-07-18T12:07:16;6.50;;;2.70;;
36137;SDS011;22194;50.046;21.954;2022-07-18T12:09:53;7.60;;;2.00;;
36137;SDS011;22194;50.046;21.954;2022-07-18T12:12:23;8.30;;;2.10;;
36137;SDS011;22194;50.046;21.954;2022-07-18T12:14:59;6.10;;;1.60;;
36137;SDS011;22194;50.046;21.954;2022-07-18T12:17:31;8.20;;;2.40;;
36137;SDS011;22194;50.046;21.954;2022-07-18T12:23:14;5.00;;;1.90;;
36137;SDS011;22194;50.046;21.954;2022-07-18T12:25:41;5.90;;;2.10;;
36137;SDS011;22194;50.046;21.954;2022-07-18T12:28:13;4.30;;;1.80;;
36137;SDS011;22194;50.046;21.954;2022-07-18T12:30:43;4.50;;;1.80;;
36137;SDS011;22194;50.046;21.954;2022-07-18T12:33:14;5.50;;;1.80;;
36137;SDS011;22194;50.046;21.954;2022-07-18T12:35:43;5.70;;;2.00;;
36137;SDS011;22194;50.046;21.954;2022-07-18T12:38:14;8.30;;;2.30;;
36137;SDS011;22194;50.046;21.954;2022-07-18T12:46:02;5.30;;;1.60;;
36137;SDS011;22194;50.046;21.954;2022-07-18T12:48:37;4.20;;;2.00;;
36137;SDS011;22194;50.046;21.954;2022-07-18T12:51:08;4.30;;;2.00;;
36137;SDS011;22194;50.046;21.954;2022-07-18T12:53:39;4.50;;;1.60;;
36137;SDS011;22194;50.046;21.954;2022-07-18T12:56:10;8.50;;;1.80;;
36137;SDS011;22194;50.046;21.954;2022-07-18T12:58:40;5.30;;;1.70;;
36137;SDS011;22194;50.046;21.954;2022-07-18T13:01:10;4.60;;;1.80;;
36137;SDS011;22194;50.046;21.954;2022-07-18T13:03:41;4.30;;;2.00;;
36137;SDS011;22194;50.046;21.954;2022-07-18T13:06:11;8.40;;;2.10;;
36137;SDS011;22194;50.046;21.954;2022-07-18T13:08:47;6.80;;;2.40;;
36137;SDS011;22194;50.046;21.954;2022-07-18T13:11:17;4.90;;;1.70;;
36137;SDS011;22194;50.046;21.954;2022-07-18T13:13:46;3.70;;;1.70;;
36137;SDS011;22194;50.046;21.954;2022-07-18T13:16:17;4.60;;;1.70;;
36137;SDS011;22194;50.046;21.954;2022-07-18T13:18:46;3.40;;;1.50;;
36137;SDS011;22194;50.046;21.954;2022-07-18T13:21:16;3.20;;;1.70;;
36137;SDS011;22194;50.046;21.954;2022-07-18T13:23:47;8.00;;;1.60;;
36137;SDS011;22194;50.046;21.954;2022-07-18T13:26:16;7.10;;;1.70;;
36137;SDS011;22194;50.046;21.954;2022-07-18T13:28:45;5.40;;;1.90;;
36137;SDS011;22194;50.046;21.954;2022-07-18T13:31:15;4.40;;;1.60;;
36137;SDS011;22194;50.046;21.954;2022-07-18T13:33:44;6.90;;;2.20;;
36137;SDS011;22194;50.046;21.954;2022-07-18T13:36:16;7.50;;;1.70;;
36137;SDS011;22194;50.046;21.954;2022-07-18T13:38:47;8.40;;;1.90;;
36137;SDS011;22194;50.046;21.954;2022-07-18T13:41:16;5.30;;;1.80;;
36137;SDS011;22194;50.046;21.954;2022-07-18T13:43:46;3.30;;;1.60;;
36137;SDS011;22194;50.046;21.954;2022-07-18T13:46:15;3.80;;;1.50;;
36137;SDS011;22194;50.046;21.954;2022-07-18T13:48:47;5.00;;;1.50;;
36137;SDS011;22194;50.046;21.954;2022-07-18T13:51:18;7.60;;;1.90;;
36137;SDS011;22194;50.046;21.954;2022-07-18T13:53:48;7.30;;;1.80;;
36137;SDS011;22194;50.046;21.954;2022-07-18T13:56:17;5.70;;;1.90;;
36137;SDS011;22194;50.046;21.954;2022-07-18T13:58:47;4.40;;;1.70;;
36137;SDS011;22194;50.046;21.954;2022-07-18T14:01:16;3.60;;;1.70;;
36137;SDS011;22194;50.046;21.954;2022-07-18T14:03:46;6.40;;;1.90;;
36137;SDS011;22194;50.046;21.954;2022-07-18T14:06:15;4.60;;;2.00;;
36137;SDS011;22194;50.046;21.954;2022-07-18T14:08:44;7.30;;;2.00;;
36137;SDS011;22194;50.046;21.954;2022-07-18T14:11:14;8.60;;;1.80;;
36137;SDS011;22194;50.046;21.954;2022-07-18T14:13:42;3.50;;;1.40;;
36137;SDS011;22194;50.046;21.954;2022-07-18T14:16:11;7.60;;;1.90;;
36137;SDS011;22194;50.046;21.954;2022-07-18T14:18:41;7.20;;;1.60;;
36137;SDS011;22194;50.046;21.954;2022-07-18T14:21:10;5.60;;;1.60;;
36137;SDS011;22194;50.046;21.954;2022-07-18T14:23:45;8.40;;;1.90;;
36137;SDS011;22194;50.046;21.954;2022-07-18T14:26:15;6.40;;;1.80;;
36137;SDS011;22194;50.046;21.954;2022-07-18T14:28:46;8.20;;;2.20;;
36137;SDS011;22194;50.046;21.954;2022-07-18T14:31:16;7.20;;;1.50;;
36137;SDS011;22194;50.046;21.954;2022-07-18T14:33:45;5.50;;;2.00;;
36137;SDS011;22194;50.046;21.954;2022-07-18T14:36:14;7.40;;;1.80;;
36137;SDS011;22194;50.046;21.954;2022-07-18T14:38:45;4.60;;;1.70;;
36137;SDS011;22194;50.046;21.954;2022-07-18T14:41:14;8.40;;;1.90;;
36137;SDS011;22194;50.046;21.954;2022-07-18T14:43:44;4.60;;;1.50;;
36137;SDS011;22194;50.046;21.954;2022-07-18T14:46:11;7.00;;;2.10;;
36137;SDS011;22194;50.046;21.954;2022-07-18T14:48:41;3.30;;;1.80;;
36137;SDS011;22194;50.046;21.954;2022-07-18T14:51:10;9.60;;;2.50;;
36137;SDS011;22194;50.046;21.954;2022-07-18T14:53:40;3.10;;;1.50;;
36137;SDS011;22194;50.046;21.954;2022-07-18T14:56:09;5.10;;;1.60;;
36137;SDS011;22194;50.046;21.954;2022-07-18T14:58:38;6.00;;;1.80;;
36137;SDS011;22194;50.046;21.954;2022-07-18T15:01:07;3.90;;;1.90;;
36137;SDS011;22194;50.046;21.954;2022-07-18T15:03:37;2.90;;;1.60;;
36137;SDS011;22194;50.046;21.954;2022-07-18T15:06:26;3.60;;;1.80;;
36137;SDS011;22194;50.046;21.954;2022-07-18T15:08:56;3.70;;;2.10;;
36137;SDS011;22194;50.046;21.954;2022-07-18T15:11:24;4.30;;;1.50;;
36137;SDS011;22194;50.046;21.954;2022-07-18T15:13:54;6.20;;;2.20;;
36137;SDS011;22194;50.046;21.954;2022-07-18T15:16:25;5.80;;;1.60;;
36137;SDS011;22194;50.046;21.954;2022-07-18T15:18:55;3.20;;;1.50;;
36137;SDS011;22194;50.046;21.954;2022-07-18T15:21:26;5.00;;;2.00;;
36137;SDS011;22194;50.046;21.954;2022-07-18T15:23:56;4.00;;;1.80;;
36137;SDS011;22194;50.046;21.954;2022-07-18T15:26:26;5.20;;;1.90;;
36137;SDS011;22194;50.046;21.954;2022-07-18T15:28:55;4.30;;;1.40;;
36137;SDS011;22194;50.046;21.954;2022-07-18T15:31:24;5.10;;;2.10;;
36137;SDS011;22194;50.046;21.954;2022-07-18T15:33:55;6.20;;;1.90;;
36137;SDS011;22194;50.046;21.954;2022-07-18T15:36:24;9.80;;;2.30;;
36137;SDS011;22194;50.046;21.954;2022-07-18T15:38:55;7.20;;;1.80;;
36137;SDS011;22194;50.046;21.954;2022-07-18T15:41:23;6.10;;;1.90;;
36137;SDS011;22194;50.046;21.954;2022-07-18T15:43:53;4.80;;;1.80;;
36137;SDS011;22194;50.046;21.954;2022-07-18T15:46:23;6.00;;;2.10;;
36137;SDS011;22194;50.046;21.954;2022-07-18T15:48:53;3.70;;;1.70;;